Decoded Metar for YABA ( in ) (IATA:) | Meteo·Mobile Aviation Weather
aviador You're here:

YABA Decoded Metar

in
Report Time2018-12-15 13:00:00
UTC Time2018-12-15 14:15:58
Flight Rules Old
Wind070° at 13 kt
W.Decomp.*RWY 05: 12.2 kt HW 4.4 kt RCW
RWY 14: 4.4 kt HW 12.2 kt LCW
W.Rank070° ranks 5
Current wind is above 070° avg. (7.6)
Visibility9999 m
Phenomena:N/A
Clouds:N/A
Expected CloudBase > 800 ft AGL from Temp-Dew spread
CeilingNone
Temp17°C
Dew Point15°C (88% RH)
AAT13.9°C
QNH1007 hPa
Raw Report
METAR YABA 151300Z AUTO 07013KT 9999 // NCD 17/15 Q1007=

Extra information for YABA:More info

Social comments